Terminal Aerodrome Forecast
Issued by NWS Dallas/Fort Worth, TX

Home | Current Version | Previous Version | Text Only | Print | Product List | Glossary On
Versions: 1 2 3 4 5 6 7 8 9 10 11 12 13 14 15 16 17 18 19 20 21 22 23 24 25 26 27 28 29 30 31 32 33 34 35
008
FTUS44 KFWD 281827 AAA
TAFDFW
TAF AMD
KDFW 281827Z 2818/0124 20015KT 6SM HZ BKN035
     FM010100 18013KT P6SM OVC250
     FM010900 27012KT P6SM SCT150 BKN250
     FM011200 34020KT P6SM SCT250
     FM011500 35017KT P6SM SKC=

USA.gov is the U.S. government's official web portal to all federal, state and local government web resources and services.